Time;durP1;ratioP1;P1;durP2;ratioP2;P2;SDS_P1;SDS_P2;PMS_P1;PMS_P2;Temp;Humidity;BMP_temperature;BMP_pressure;BME280_temperature;BME280_humidity;BME280_pressure;Samples;Min_cycle;Max_cycle;Signal;HPM_P1;HPM_P2
2023/05/02 00:00:02;;;;;;;2.97;2.43;;;;;;;10.83;100.00;96805.97;5068221;28;20529;-59
2023/05/02 00:02:29;;;;;;;3.40;2.50;;;;;;;10.89;100.00;96808.88;5070356;28;20206;-59
2023/05/02 00:04:57;;;;;;;2.97;2.50;;;;;;;10.87;100.00;96799.44;5068636;28;20222;-60
2023/05/02 00:07:23;;;;;;;3.03;2.83;;;;;;;10.86;100.00;96803.03;5068565;28;20202;-59
2023/05/02 00:09:49;;;;;;;2.60;2.40;;;;;;;10.86;100.00;96801.25;5067087;28;20256;-60
2023/05/02 00:12:16;;;;;;;4.77;2.20;;;;;;;10.82;100.00;96799.84;5068459;28;20290;-60
2023/05/02 00:14:42;;;;;;;3.00;2.80;;;;;;;10.84;100.00;96797.88;5068730;28;20297;-60
2023/05/02 00:17:09;;;;;;;2.70;2.50;;;;;;;10.86;100.00;96797.75;5070220;28;20207;-60
2023/05/02 00:19:38;;;;;;;2.87;2.67;;;;;;;10.90;100.00;96794.69;5068727;28;20331;-59
2023/05/02 00:22:08;;;;;;;3.07;2.77;;;;;;;10.88;100.00;96787.84;5069965;28;20249;-59
2023/05/02 00:24:35;;;;;;;3.00;2.70;;;;;;;10.89;100.00;96794.81;5070779;28;20288;-60
2023/05/02 00:27:01;;;;;;;2.70;2.50;;;;;;;10.82;100.00;96786.63;5071200;28;21169;-61
2023/05/02 00:29:28;;;;;;;2.73;2.63;;;;;;;10.83;100.00;96790.94;5073466;28;20582;-61
2023/05/02 00:31:54;;;;;;;2.53;2.43;;;;;;;10.80;100.00;96785.09;5074398;28;20549;-60
2023/05/02 00:34:21;;;;;;;3.00;2.80;;;;;;;10.84;100.00;96779.38;5074296;28;20198;-61
2023/05/02 00:36:48;;;;;;;3.17;2.87;;;;;;;10.88;100.00;96783.41;5074058;28;20203;-62
2023/05/02 00:39:17;;;;;;;2.50;2.40;;;;;;;10.85;100.00;96774.91;5073743;28;20217;-62
2023/05/02 00:41:43;;;;;;;3.43;2.73;;;;;;;10.82;100.00;96778.69;5073933;28;20206;-62
2023/05/02 00:44:10;;;;;;;3.20;2.90;;;;;;;10.82;100.00;96780.50;5073597;28;20634;-60
2023/05/02 00:46:36;;;;;;;2.93;2.63;;;;;;;10.79;100.00;96784.25;5073404;28;20226;-61
2023/05/02 00:49:03;;;;;;;2.80;2.70;;;;;;;10.85;100.00;96775.75;5074302;28;20194;-60
2023/05/02 00:51:29;;;;;;;3.90;2.50;;;;;;;10.76;100.00;96776.59;5073406;28;20218;-62
2023/05/02 00:53:56;;;;;;;2.77;2.67;;;;;;;10.70;100.00;96771.84;5074371;28;20264;-61
2023/05/02 00:56:24;;;;;;;4.27;2.70;;;;;;;10.73;100.00;96776.91;5074006;28;20214;-60
2023/05/02 00:58:51;;;;;;;3.17;2.80;;;;;;;10.72;100.00;96774.38;5073537;28;20207;-60
2023/05/02 01:01:27;;;;;;;4.03;3.00;;;;;;;10.72;100.00;96775.22;5073428;28;20199;-61
2023/05/02 01:04:04;;;;;;;4.47;2.63;;;;;;;10.68;100.00;96771.19;5073880;28;20516;-60
2023/05/02 01:06:37;;;;;;;3.00;2.80;;;;;;;10.68;100.00;96771.19;5072960;28;20214;-61
2023/05/02 01:09:16;;;;;;;3.60;2.70;;;;;;;10.67;100.00;96766.03;5073551;28;20312;-61
2023/05/02 01:11:49;;;;;;;2.90;2.70;;;;;;;10.68;100.00;96775.63;5073388;28;20221;-61
2023/05/02 01:14:16;;;;;;;3.10;2.90;;;;;;;10.66;100.00;96765.22;5072564;28;20286;-60
2023/05/02 01:16:43;;;;;;;3.83;3.10;;;;;;;10.70;100.00;96774.50;5073381;28;20233;-60
2023/05/02 01:19:20;;;;;;;4.10;2.93;;;;;;;10.66;100.00;96775.78;5073273;28;20329;-62
2023/05/02 01:21:48;;;;;;;6.53;3.40;;;;;;;10.74;100.00;96778.53;5073485;28;20218;-61
2023/05/02 01:24:20;;;;;;;3.10;2.90;;;;;;;10.68;100.00;96779.13;5073081;28;20205;-61
2023/05/02 01:26:52;;;;;;;3.10;2.90;;;;;;;10.68;100.00;96784.41;5073394;28;20655;-62
2023/05/02 01:29:22;;;;;;;3.00;2.80;;;;;;;10.65;100.00;96787.34;5072278;28;20734;-61
2023/05/02 01:31:51;;;;;;;3.10;2.90;;;;;;;10.63;100.00;96791.09;5072984;28;20295;-61
2023/05/02 01:34:19;;;;;;;3.40;3.20;;;;;;;10.63;100.00;96791.91;5072603;28;20221;-62
2023/05/02 01:36:47;;;;;;;3.40;3.10;;;;;;;10.58;100.00;96788.03;5072603;28;20194;-62
2023/05/02 01:39:16;;;;;;;4.90;3.03;;;;;;;10.55;100.00;96791.78;5072295;28;20207;-61
2023/05/02 01:41:43;;;;;;;3.30;3.10;;;;;;;10.60;100.00;96796.66;5072754;28;20264;-60
2023/05/02 01:44:11;;;;;;;3.40;3.20;;;;;;;10.57;100.00;96791.63;5072991;28;20306;-61
2023/05/02 01:46:42;;;;;;;3.07;2.97;;;;;;;10.53;100.00;96795.53;5071054;28;20217;-61
2023/05/02 01:49:09;;;;;;;3.10;2.90;;;;;;;10.59;100.00;96795.00;5073080;28;20190;-60
2023/05/02 01:51:37;;;;;;;3.00;2.90;;;;;;;10.58;100.00;96794.16;5072547;28;20202;-60
2023/05/02 01:54:05;;;;;;;3.43;3.13;;;;;;;10.59;100.00;96797.63;5072370;28;20653;-60
2023/05/02 01:56:34;;;;;;;3.37;3.17;;;;;;;10.53;100.00;96792.88;5072090;28;20203;-62
2023/05/02 01:59:01;;;;;;;3.43;3.23;;;;;;;10.52;100.00;96789.44;5072263;28;20238;-61
2023/05/02 02:01:29;;;;;;;4.10;3.80;;;;;;;10.53;100.00;96795.53;5072570;28;20653;-61
2023/05/02 02:03:58;;;;;;;3.00;2.90;;;;;;;10.52;100.00;96794.72;5072639;28;20206;-60
2023/05/02 02:06:26;;;;;;;3.43;3.23;;;;;;;10.45;100.00;96788.31;5072472;28;20227;-61
2023/05/02 02:08:54;;;;;;;3.73;3.43;;;;;;;10.45;100.00;96804.19;5071825;28;20510;-62
2023/05/02 02:11:25;;;;;;;3.20;3.00;;;;;;;10.40;100.00;96801.09;5072381;28;20206;-61
2023/05/02 02:13:55;;;;;;;3.80;3.50;;;;;;;10.33;100.00;96805.28;5071651;28;20542;-61
2023/05/02 02:16:25;;;;;;;3.77;3.57;;;;;;;10.35;100.00;96800.66;5071948;28;20203;-62
2023/05/02 02:18:57;;;;;;;4.47;3.43;;;;;;;10.32;100.00;96809.72;5070789;28;20635;-61
2023/05/02 02:21:25;;;;;;;3.50;3.30;;;;;;;10.31;100.00;96809.84;5072107;28;20232;-62
2023/05/02 02:23:54;;;;;;;3.40;3.20;;;;;;;10.26;100.00;96809.44;5071917;28;20230;-60
2023/05/02 02:26:22;;;;;;;3.50;3.20;;;;;;;10.33;100.00;96808.75;5072031;28;20227;-61
2023/05/02 02:28:49;;;;;;;3.77;3.53;;;;;;;10.35;100.00;96808.59;5071704;28;20206;-62
2023/05/02 02:31:17;;;;;;;3.37;3.13;;;;;;;10.31;100.00;96813.31;5071791;28;20206;-60
2023/05/02 02:33:44;;;;;;;3.50;3.30;;;;;;;10.34;100.00;96807.78;5071407;28;20653;-61
2023/05/02 02:36:15;;;;;;;3.50;3.20;;;;;;;10.34;100.00;96806.94;5072169;28;20203;-60
2023/05/02 02:38:46;;;;;;;3.67;3.40;;;;;;;10.34;100.00;96817.53;5071322;28;20202;-61
2023/05/02 02:41:15;;;;;;;3.50;3.30;;;;;;;10.34;100.00;96807.78;5071714;28;20199;-60
2023/05/02 02:43:49;;;;;;;3.73;3.30;;;;;;;10.31;100.00;96815.97;5070984;28;20207;-61
2023/05/02 02:46:33;;;;;;;3.30;3.00;;;;;;;10.35;100.00;96817.38;5071261;28;20221;-60
2023/05/02 02:49:10;;;;;;;3.93;3.30;;;;;;;10.40;100.00;96817.81;5072094;28;20541;-62
2023/05/02 02:51:47;;;;;;;4.30;3.90;;;;;;;10.40;100.00;96811.69;5070701;28;20537;-61
2023/05/02 02:54:19;;;;;;;4.37;3.17;;;;;;;10.46;100.00;96819.06;5071833;28;20201;-61
2023/05/02 02:56:49;;;;;;;3.87;3.17;;;;;;;10.51;100.00;96816.00;5071494;28;20205;-61
2023/05/02 02:59:19;;;;;;;3.90;3.40;;;;;;;10.46;100.00;96821.69;5070397;28;20634;-62
2023/05/02 03:02:01;;;;;;;3.93;3.50;;;;;;;10.45;100.00;96831.44;5071498;28;21343;-62
2023/05/02 03:04:29;;;;;;;3.93;3.50;;;;;;;10.44;100.00;96827.13;5071391;28;20527;-62
2023/05/02 03:06:57;;;;;;;3.60;3.30;;;;;;;10.45;100.00;96830.63;5071215;28;20225;-61
2023/05/02 03:09:24;;;;;;;3.70;3.00;;;;;;;10.48;100.00;96825.88;5070719;28;20202;-62
2023/05/02 03:11:51;;;;;;;4.13;3.70;;;;;;;10.44;100.00;96831.59;5070519;28;20602;-61
2023/05/02 03:14:17;;;;;;;3.70;3.40;;;;;;;10.48;100.00;96830.34;5070330;28;20199;-62
2023/05/02 03:16:44;;;;;;;3.00;2.80;;;;;;;10.44;100.00;96826.28;5070988;28;20206;-62
2023/05/02 03:19:12;;;;;;;5.30;3.03;;;;;;;10.40;100.00;96836.31;5070676;28;20257;-61
2023/05/02 03:21:39;;;;;;;3.20;3.00;;;;;;;10.39;100.00;96831.16;5070867;28;20246;-62
2023/05/02 03:24:07;;;;;;;2.90;2.70;;;;;;;10.46;100.00;96840.19;5071400;28;20206;-61
2023/05/02 03:26:33;;;;;;;3.77;3.10;;;;;;;10.45;100.00;96839.38;5070768;28;20566;-61
2023/05/02 03:29:00;;;;;;;3.23;3.03;;;;;;;10.44;100.00;96848.28;5070112;28;20198;-61
2023/05/02 03:31:26;;;;;;;3.90;3.30;;;;;;;10.49;100.00;96842.56;5071170;28;20262;-60
2023/05/02 03:33:53;;;;;;;2.90;2.70;;;;;;;10.47;100.00;96845.38;5070630;28;20661;-62
2023/05/02 03:36:19;;;;;;;2.87;2.77;;;;;;;10.49;100.00;96848.69;5070492;28;20202;-62
2023/05/02 03:38:46;;;;;;;4.27;2.70;;;;;;;10.51;100.00;96851.22;5071134;28;20194;-62
2023/05/02 03:41:14;;;;;;;3.20;3.00;;;;;;;10.49;100.00;96848.69;5070332;28;20755;-61
2023/05/02 03:43:40;;;;;;;3.20;2.80;;;;;;;10.50;100.00;96846.88;5070657;28;20218;-63
2023/05/02 03:46:08;;;;;;;5.00;2.60;;;;;;;10.44;100.00;96850.94;5071017;28;20227;-61
2023/05/02 03:48:35;;;;;;;2.90;2.67;;;;;;;10.47;100.00;96850.66;5071863;28;20246;-61
2023/05/02 03:51:02;;;;;;;4.03;2.80;;;;;;;10.48;100.00;96851.50;5089185;28;20198;-61
2023/05/02 03:53:30;;;;;;;3.10;2.90;;;;;;;10.47;100.00;96855.09;5090767;28;20212;-61
2023/05/02 03:55:57;;;;;;;4.27;2.90;;;;;;;10.43;100.00;96864.28;5072748;28;20203;-61
2023/05/02 03:58:26;;;;;;;3.83;2.70;;;;;;;10.41;100.00;96863.59;5071450;28;20531;-61
2023/05/02 04:00:56;;;;;;;2.97;2.77;;;;;;;10.42;100.00;96867.88;5071368;28;20209;-61
2023/05/02 04:03:23;;;;;;;3.13;2.93;;;;;;;10.47;100.00;96866.50;5074018;28;20218;-61
2023/05/02 04:05:50;;;;;;;3.40;3.10;;;;;;;10.45;100.00;96862.34;5075319;28;20662;-60
2023/05/02 04:08:17;;;;;;;2.70;2.50;;;;;;;10.50;100.00;96865.41;5076306;28;20198;-61
2023/05/02 04:10:43;;;;;;;3.27;2.77;;;;;;;10.53;100.00;96864.28;5086655;28;20213;-62
2023/05/02 04:13:10;;;;;;;3.17;2.97;;;;;;;10.49;100.00;96861.06;5086228;28;20202;-63
2023/05/02 04:15:40;;;;;;;2.90;2.77;;;;;;;10.49;100.00;96864.56;5083193;28;20542;-61
2023/05/02 04:18:07;;;;;;;4.53;3.10;;;;;;;10.48;100.00;96873.47;5074883;28;20194;-61
2023/05/02 04:20:33;;;;;;;3.10;2.90;;;;;;;10.48;100.00;96878.78;5074157;28;20744;-61
2023/05/02 04:23:00;;;;;;;3.83;3.23;;;;;;;10.51;100.00;96876.81;5074813;28;20305;-61
2023/05/02 04:25:28;;;;;;;3.00;2.77;;;;;;;10.57;100.00;96886.84;5074769;28;20198;-61
2023/05/02 04:27:56;;;;;;;3.00;2.77;;;;;;;10.50;100.00;96881.25;5074072;28;20737;-62
2023/05/02 04:30:23;;;;;;;3.47;3.13;;;;;;;10.46;100.00;96882.50;5074748;28;20622;-61
2023/05/02 04:32:51;;;;;;;6.27;3.17;;;;;;;10.45;100.00;96889.59;5075379;28;20203;-61
2023/05/02 04:35:17;;;;;;;3.10;2.90;;;;;;;10.46;100.00;96880.69;5075300;28;20199;-60
2023/05/02 04:37:45;;;;;;;3.03;2.77;;;;;;;10.47;100.00;96882.38;5074642;28;20214;-60
2023/05/02 04:40:13;;;;;;;5.20;2.90;;;;;;;10.51;100.00;96895.31;5074720;28;20211;-64
2023/05/02 04:42:40;;;;;;;4.30;3.20;;;;;;;10.43;100.00;96893.34;5074640;28;20210;-62
2023/05/02 04:45:08;;;;;;;3.20;3.00;;;;;;;10.41;100.00;96895.31;5074293;28;20630;-61
2023/05/02 04:47:35;;;;;;;3.17;2.87;;;;;;;10.41;100.00;96898.78;5074793;28;20226;-63
2023/05/02 04:50:03;;;;;;;3.87;3.40;;;;;;;10.35;100.00;96893.19;5074148;28;20658;-62
2023/05/02 04:52:30;;;;;;;4.23;3.27;;;;;;;10.34;100.00;96894.19;5074554;28;20198;-61
2023/05/02 04:54:57;;;;;;;3.80;3.40;;;;;;;10.32;100.00;96899.59;5074444;28;20215;-62
2023/05/02 04:57:23;;;;;;;4.57;3.30;;;;;;;10.28;100.00;96902.63;5074550;28;20199;-61
2023/05/02 04:59:50;;;;;;;3.40;3.20;;;;;;;10.26;100.00;96894.00;5074037;28;20217;-61
2023/05/02 05:02:18;;;;;;;3.57;3.23;;;;;;;10.31;100.00;96900.56;5074226;28;20306;-60
2023/05/02 05:04:45;;;;;;;3.70;3.40;;;;;;;10.30;100.00;96912.13;5074885;28;20529;-64
2023/05/02 05:07:13;;;;;;;5.30;3.30;;;;;;;10.26;100.00;96920.44;5072616;28;20663;-61
2023/05/02 05:09:39;;;;;;;4.00;3.53;;;;;;;10.26;100.00;96928.38;5073955;28;20212;-60
2023/05/02 05:12:06;;;;;;;4.93;3.50;;;;;;;10.32;100.00;96941.03;5074738;28;20198;-60
2023/05/02 05:14:33;;;;;;;3.67;3.37;;;;;;;10.35;100.00;96935.47;5072848;28;20207;-61
2023/05/02 05:16:59;;;;;;;3.37;3.07;;;;;;;10.32;100.00;96947.16;5074705;28;20195;-60
2023/05/02 05:19:26;;;;;;;3.87;3.50;;;;;;;10.34;100.00;96949.69;5074027;28;20209;-60
2023/05/02 05:21:53;;;;;;;4.63;3.20;;;;;;;10.34;100.00;96954.97;5074752;28;20226;-66
2023/05/02 05:24:21;;;;;;;6.17;3.50;;;;;;;10.27;100.00;96961.78;5073809;28;20634;-63
2023/05/02 05:26:48;;;;;;;4.50;3.30;;;;;;;10.33;100.00;96963.88;5073773;28;20215;-64
2023/05/02 05:29:15;;;;;;;3.40;3.10;;;;;;;10.37;100.00;96974.06;5072363;28;20214;-66
2023/05/02 05:31:41;;;;;;;3.60;3.30;;;;;;;10.41;100.00;96977.28;5073837;28;20206;-65
2023/05/02 05:34:10;;;;;;;4.47;3.30;;;;;;;10.46;100.00;96985.63;5074847;28;20207;-64
2023/05/02 05:36:39;;;;;;;3.37;3.07;;;;;;;10.44;100.00;96984.94;5074605;28;20290;-63
2023/05/02 05:39:05;;;;;;;3.53;3.33;;;;;;;10.51;100.00;96993.16;5074844;28;20207;-64
2023/05/02 05:41:37;;;;;;;3.30;3.00;;;;;;;10.56;100.00;96991.78;5074504;28;20259;-65
2023/05/02 05:44:04;;;;;;;3.70;3.40;;;;;;;10.59;100.00;96990.69;5073758;28;20210;-63
2023/05/02 05:46:30;;;;;;;3.43;3.23;;;;;;;10.66;100.00;96992.66;5072721;28;20218;-64
2023/05/02 05:48:58;;;;;;;3.53;3.30;;;;;;;10.67;100.00;97002.25;5072778;28;20218;-63
2023/05/02 05:51:26;;;;;;;3.47;3.23;;;;;;;10.69;100.00;97002.13;5073126;28;20236;-63
2023/05/02 05:53:53;;;;;;;3.50;3.30;;;;;;;10.70;100.00;97004.63;5073375;28;20229;-64
2023/05/02 05:56:20;;;;;;;5.30;3.30;;;;;;;10.75;100.00;96998.94;5072291;28;20198;-64
2023/05/02 05:58:48;;;;;;;3.50;3.30;;;;;;;10.77;100.00;97008.41;5072546;28;20527;-64
2023/05/02 06:01:15;;;;;;;3.60;3.30;;;;;;;10.83;100.00;97001.75;5073002;28;20202;-65
2023/05/02 06:03:41;;;;;;;4.23;3.67;;;;;;;10.82;100.00;97002.72;5073139;28;20211;-64
2023/05/02 06:06:08;;;;;;;4.00;3.17;;;;;;;10.87;100.00;97001.34;5072554;28;20199;-64
2023/05/02 06:08:34;;;;;;;3.70;3.30;;;;;;;10.95;100.00;96998.00;5072824;28;20212;-63
2023/05/02 06:11:01;;;;;;;5.27;3.63;;;;;;;10.96;100.00;96999.69;5073700;28;20203;-64
2023/05/02 06:13:28;;;;;;;3.87;3.57;;;;;;;11.04;100.00;96997.19;5072636;28;20195;-63
2023/05/02 06:16:00;;;;;;;4.30;4.00;;;;;;;11.07;100.00;97007.50;5073195;28;20750;-65
2023/05/02 06:18:27;;;;;;;4.50;4.20;;;;;;;11.17;100.00;97007.50;5072978;28;20195;-63
2023/05/02 06:20:55;;;;;;;6.07;4.50;;;;;;;11.24;100.00;97008.63;5078547;28;20230;-62
2023/05/02 06:23:21;;;;;;;5.03;4.63;;;;;;;11.29;100.00;97015.19;5081232;28;20226;-64
2023/05/02 06:25:48;;;;;;;5.23;4.70;;;;;;;11.31;100.00;97015.03;5078186;28;20206;-65
2023/05/02 06:28:14;;;;;;;5.50;5.00;;;;;;;11.42;100.00;97017.56;5072329;28;20215;-63
2023/05/02 06:30:41;;;;;;;5.50;5.00;;;;;;;11.52;100.00;97023.69;5071986;28;20209;-64
2023/05/02 06:33:11;;;;;;;5.00;4.60;;;;;;;11.57;100.00;97017.97;5072371;28;20209;-63
2023/05/02 06:35:37;;;;;;;5.13;4.63;;;;;;;11.62;100.00;97018.41;5072651;28;20596;-63
2023/05/02 06:38:04;;;;;;;5.53;4.63;;;;;;;11.66;100.00;97020.63;5074100;28;20201;-64
2023/05/02 06:40:30;;;;;;;4.37;3.93;;;;;;;11.68;100.00;97023.13;5079276;28;20203;-65
2023/05/02 06:42:58;;;;;;;4.77;4.40;;;;;;;11.69;100.00;97025.63;5079556;28;20260;-65
2023/05/02 06:45:24;;;;;;;5.00;4.60;;;;;;;11.73;100.00;97024.41;5074304;28;20560;-63
2023/05/02 06:47:51;;;;;;;4.70;4.40;;;;;;;11.76;100.00;97037.38;5072778;28;20237;-64
2023/05/02 06:50:22;;;;;;;5.00;4.57;;;;;;;11.76;100.00;97036.56;5072161;28;20202;-64
2023/05/02 06:52:49;;;;;;;5.27;4.87;;;;;;;11.78;100.00;97034.59;5072189;28;20635;-63
2023/05/02 06:55:17;;;;;;;5.90;4.50;;;;;;;11.81;100.00;97035.16;5070937;28;20206;-63
2023/05/02 06:57:43;;;;;;;4.90;4.60;;;;;;;11.84;100.00;97039.31;5072048;28;20206;-64
2023/05/02 07:00:11;;;;;;;4.70;4.30;;;;;;;11.97;100.00;97042.53;5071041;28;20317;-64
2023/05/02 07:02:37;;;;;;;4.40;4.20;;;;;;;12.04;100.00;97045.44;5070504;28;20210;-64
2023/05/02 07:05:05;;;;;;;4.10;3.90;;;;;;;12.11;100.00;97039.44;5071337;28;20202;-64
2023/05/02 07:07:32;;;;;;;4.33;4.03;;;;;;;12.18;100.00;97048.50;5069678;28;20241;-65
2023/05/02 07:10:01;;;;;;;4.80;4.40;;;;;;;12.23;100.00;97048.88;5071593;28;20210;-63
2023/05/02 07:12:28;;;;;;;4.10;3.80;;;;;;;12.34;100.00;97054.03;5071198;28;20213;-64
2023/05/02 07:14:54;;;;;;;4.23;3.93;;;;;;;12.48;100.00;97050.91;5071454;28;20199;-63
2023/05/02 07:17:21;;;;;;;4.60;4.30;;;;;;;12.59;100.00;97046.41;5070965;28;20319;-63
2023/05/02 07:19:47;;;;;;;4.63;4.33;;;;;;;12.65;100.00;97051.94;5070502;28;20241;-63
2023/05/02 07:22:15;;;;;;;4.40;4.10;;;;;;;12.76;100.00;97049.13;5071298;28;20267;-62
2023/05/02 07:24:42;;;;;;;5.27;4.30;;;;;;;12.89;100.00;97054.09;5071847;28;20293;-64
2023/05/02 07:27:09;;;;;;;4.63;4.33;;;;;;;12.91;100.00;97050.31;5071725;28;20279;-64
2023/05/02 07:29:36;;;;;;;4.63;4.23;;;;;;;12.94;100.00;97049.16;5072171;28;20203;-65
2023/05/02 07:32:03;;;;;;;4.60;4.30;;;;;;;13.07;100.00;97048.84;5072005;28;20695;-63
2023/05/02 07:34:30;;;;;;;5.30;4.80;;;;;;;13.04;100.00;97047.28;5072822;28;20217;-65
2023/05/02 07:36:56;;;;;;;7.17;5.63;;;;;;;13.25;100.00;97044.44;5071283;28;20221;-63
2023/05/02 07:39:24;;;;;;;6.63;6.03;;;;;;;13.36;100.00;97049.50;5071800;28;20207;-63
2023/05/02 07:41:52;;;;;;;6.80;6.20;;;;;;;13.55;100.00;97045.88;5071895;28;20214;-64
2023/05/02 07:44:19;;;;;;;6.63;6.03;;;;;;;13.72;100.00;97051.19;5072862;28;20203;-64
2023/05/02 07:46:45;;;;;;;7.37;5.63;;;;;;;13.95;100.00;97047.09;5074629;28;20209;-64
2023/05/02 07:49:12;;;;;;;6.17;5.70;;;;;;;14.14;100.00;97050.53;5074221;28;20230;-63
2023/05/02 07:51:39;;;;;;;6.20;5.70;;;;;;;14.49;100.00;97052.31;5071332;28;20202;-64
2023/05/02 07:54:15;;;;;;;5.77;5.30;;;;;;;15.05;100.00;97049.09;5071573;28;20195;-64
2023/05/02 07:56:43;;;;;;;6.05;5.63;;;;;;;15.28;100.00;97043.00;5070608;28;20212;-64
2023/05/02 07:59:12;;;;;;;6.60;6.05;;;;;;;15.55;100.00;97039.28;5071351;28;20202;-64
2023/05/02 08:01:41;;;;;;;5.97;5.47;;;;;;;15.70;100.00;97050.94;5070863;28;20206;-63
2023/05/02 08:04:09;;;;;;;6.75;6.15;;;;;;;16.11;93.58;97050.97;5072115;28;20268;-63
2023/05/02 08:06:35;;;;;;;6.47;5.35;;;;;;;16.02;96.97;97049.28;5072523;28;20206;-63
2023/05/02 08:09:02;;;;;;;5.88;5.47;;;;;;;16.06;95.61;97053.31;5079817;28;20229;-64
2023/05/02 08:11:28;;;;;;;5.75;5.35;;;;;;;15.96;96.17;97050.81;5080044;28;20210;-65
2023/05/02 08:13:55;;;;;;;5.70;5.30;;;;;;;15.87;98.72;97057.97;5071596;28;20209;-63
2023/05/02 08:16:23;;;;;;;6.05;5.55;;;;;;;15.68;100.00;97054.78;5071963;28;20214;-63
2023/05/02 08:18:50;;;;;;;6.20;5.70;;;;;;;15.34;95.98;97060.16;5071907;28;20206;-63
2023/05/02 08:21:16;;;;;;;5.60;5.20;;;;;;;15.31;100.00;97060.50;5071584;28;20234;-64
2023/05/02 08:23:45;;;;;;;5.55;5.00;;;;;;;15.26;100.00;97068.16;5071135;28;20209;-64
2023/05/02 08:26:11;;;;;;;6.85;5.85;;;;;;;15.21;98.03;97057.13;5072892;28;20229;-63
2023/05/02 08:28:38;;;;;;;6.22;5.63;;;;;;;15.18;92.13;97065.44;5078174;28;20222;-63
2023/05/02 08:31:04;;;;;;;5.57;5.18;;;;;;;14.95;100.00;97060.69;5078071;28;20210;-65
2023/05/02 08:33:34;;;;;;;5.95;5.35;;;;;;;14.86;97.77;97056.34;5075264;28;20198;-63
2023/05/02 08:36:02;;;;;;;5.65;5.18;;;;;;;14.89;100.00;97061.34;5070104;28;20237;-66
2023/05/02 08:38:29;;;;;;;6.10;5.50;;;;;;;14.58;98.47;97062.84;5069961;28;20285;-64
2023/05/02 08:40:55;;;;;;;6.93;5.63;;;;;;;14.48;100.00;97071.94;5070820;28;20264;-65
2023/05/02 08:43:22;;;;;;;7.15;5.70;;;;;;;14.61;100.00;97067.84;5070487;28;20199;-65
2023/05/02 08:45:49;;;;;;;6.32;5.72;;;;;;;14.59;100.00;97069.84;5070783;28;20214;-65
2023/05/02 08:48:16;;;;;;;5.60;5.20;;;;;;;14.76;100.00;97076.94;5071045;28;20218;-64
2023/05/02 08:50:47;;;;;;;6.65;6.03;;;;;;;14.95;100.00;97076.69;5074761;28;20207;-65
2023/05/02 08:53:15;;;;;;;6.25;5.75;;;;;;;15.06;100.00;97078.22;5074732;28;20218;-64
2023/05/02 08:55:42;;;;;;;5.90;5.35;;;;;;;15.08;98.46;97075.41;5074030;28;20202;-63
2023/05/02 08:58:09;;;;;;;6.82;5.82;;;;;;;15.26;99.01;97078.81;5073497;28;20832;-63
2023/05/02 09:00:38;;;;;;;6.88;5.88;;;;;;;15.17;94.05;97071.78;5073583;28;20206;-64
2023/05/02 09:03:09;;;;;;;5.97;5.53;;;;;;;15.42;94.10;97084.19;5073616;28;20216;-65
2023/05/02 09:05:40;;;;;;;6.03;5.47;;;;;;;15.69;93.88;97075.97;5074132;28;20216;-65
2023/05/02 09:08:09;;;;;;;7.25;5.85;;;;;;;16.02;91.89;97075.97;5073101;28;20685;-64
2023/05/02 09:10:36;;;;;;;6.57;5.30;;;;;;;16.48;91.44;97069.94;5073287;28;20510;-64
2023/05/02 09:13:28;;;;;;;6.53;5.88;;;;;;;16.79;87.74;97070.09;5073140;28;20206;-64
2023/05/02 09:15:58;;;;;;;5.43;4.93;;;;;;;17.50;87.58;97075.28;5074355;28;20215;-64
2023/05/02 09:18:30;;;;;;;6.25;5.75;;;;;;;17.99;80.10;97075.03;5074109;28;20256;-64
2023/05/02 09:20:59;;;;;;;5.50;5.00;;;;;;;18.35;77.30;97070.72;5073343;28;20234;-64
2023/05/02 09:23:41;;;;;;;5.32;4.88;;;;;;;18.83;68.34;97072.97;5075042;28;20519;-64
2023/05/02 09:26:16;;;;;;;7.35;5.10;;;;;;;18.99;72.11;97073.81;5074767;28;20211;-65
2023/05/02 09:28:45;;;;;;;5.03;4.63;;;;;;;18.99;70.00;97071.94;5073122;28;20662;-65
2023/05/02 09:31:13;;;;;;;4.75;4.45;;;;;;;18.97;71.55;97075.81;5073938;28;20536;-64
2023/05/02 09:33:40;;;;;;;8.52;5.25;;;;;;;18.66;69.58;97079.50;5073778;28;20218;-63
2023/05/02 09:36:07;;;;;;;4.93;4.45;;;;;;;18.61;76.77;97062.28;5073527;28;20631;-64
2023/05/02 09:38:34;;;;;;;4.97;4.47;;;;;;;18.25;72.47;97064.78;5073630;28;20295;-64
2023/05/02 09:41:03;;;;;;;5.07;4.75;;;;;;;18.13;70.35;97064.38;5074422;28;20291;-63
2023/05/02 09:43:30;;;;;;;5.15;4.75;;;;;;;18.02;69.63;97064.81;5073632;28;20222;-64
2023/05/02 09:45:58;;;;;;;5.20;4.85;;;;;;;17.65;67.25;97067.38;5074382;28;20209;-65
2023/05/02 09:48:25;;;;;;;4.57;4.28;;;;;;;17.68;71.27;97065.19;5071987;28;20681;-64
2023/05/02 09:50:52;;;;;;;5.00;4.70;;;;;;;17.95;73.40;97068.38;5073896;28;20202;-63
2023/05/02 09:53:18;;;;;;;5.55;5.07;;;;;;;17.81;68.98;97067.31;5074081;28;20532;-64
2023/05/02 09:55:45;;;;;;;5.10;4.60;;;;;;;17.70;71.06;97075.72;5073055;28;20214;-64
2023/05/02 09:58:22;;;;;;;5.82;5.05;;;;;;;17.54;71.20;97065.91;5072952;28;20206;-64
2023/05/02 10:00:50;;;;;;;5.35;4.85;;;;;;;17.41;72.18;97077.19;5072487;28;20278;-64
2023/05/02 10:03:17;;;;;;;5.88;5.30;;;;;;;17.39;73.76;97073.03;5072761;28;20207;-64
2023/05/02 10:05:45;;;;;;;5.72;5.22;;;;;;;17.34;72.81;97070.03;5073070;28;20218;-64
2023/05/02 10:08:12;;;;;;;5.10;4.68;;;;;;;16.96;74.33;97077.06;5072593;28;20847;-64
2023/05/02 10:10:39;;;;;;;5.07;4.68;;;;;;;17.06;73.84;97075.00;5073624;28;20203;-66
2023/05/02 10:13:07;;;;;;;5.13;4.72;;;;;;;16.97;75.26;97073.34;5073118;28;20195;-65
2023/05/02 10:15:41;;;;;;;5.25;4.85;;;;;;;16.91;78.37;97079.41;5073128;28;20206;-64
2023/05/02 10:18:13;;;;;;;4.97;4.60;;;;;;;16.70;77.46;97077.28;5073216;28;20543;-64
2023/05/02 10:20:46;;;;;;;5.10;4.70;;;;;;;16.48;76.56;97080.63;5072906;28;20218;-63
2023/05/02 10:23:14;;;;;;;5.10;4.70;;;;;;;16.92;77.15;97079.25;5073191;28;20282;-63
2023/05/02 10:25:41;;;;;;;5.35;4.97;;;;;;;17.13;73.64;97078.66;5072436;28;20211;-64
2023/05/02 10:28:10;;;;;;;5.65;5.20;;;;;;;17.73;73.41;97075.38;5072718;28;20223;-63
2023/05/02 10:30:39;;;;;;;4.60;4.30;;;;;;;18.16;71.38;97077.41;5072886;28;20631;-64
2023/05/02 10:33:06;;;;;;;5.93;5.40;;;;;;;18.91;67.63;97076.56;5073127;28;20207;-63
2023/05/02 10:35:32;;;;;;;4.60;4.10;;;;;;;18.94;64.63;97082.38;5072315;28;20210;-62
2023/05/02 10:38:00;;;;;;;4.53;4.22;;;;;;;18.81;66.72;97074.97;5072675;28;20190;-63
2023/05/02 10:40:27;;;;;;;4.28;3.97;;;;;;;18.79;66.01;97077.00;5072305;28;20198;-63
2023/05/02 10:42:54;;;;;;;5.13;4.18;;;;;;;18.69;64.57;97072.94;5072286;28;20202;-63
2023/05/02 10:45:31;;;;;;;3.83;3.53;;;;;;;18.66;66.67;97068.78;5072445;28;20221;-64
2023/05/02 10:48:15;;;;;;;4.93;4.47;;;;;;;17.92;67.19;97064.22;5072439;28;20649;-64
2023/05/02 10:50:46;;;;;;;4.65;4.25;;;;;;;17.73;67.22;97062.84;5072573;28;20195;-64
2023/05/02 10:53:26;;;;;;;4.70;4.40;;;;;;;17.48;72.66;97055.94;5072380;28;21393;-64
2023/05/02 10:56:13;;;;;;;4.40;4.10;;;;;;;17.30;72.84;97058.03;5072153;28;20194;-64
2023/05/02 10:58:39;;;;;;;3.97;3.67;;;;;;;17.09;72.94;97063.13;5072403;28;20290;-64
2023/05/02 11:01:35;;;;;;;5.95;4.50;;;;;;;16.63;70.45;97059.44;5072304;28;20206;-64
2023/05/02 11:04:05;;;;;;;4.57;3.97;;;;;;;16.43;72.49;97058.97;5069176;28;20206;-64
2023/05/02 11:06:34;;;;;;;3.80;3.50;;;;;;;16.51;74.27;97058.94;5072400;28;20206;-64
2023/05/02 11:09:33;;;;;;;3.55;3.35;;;;;;;16.38;73.44;97058.63;5072235;28;20241;-63
2023/05/02 11:12:03;;;;;;;4.40;4.07;;;;;;;16.31;76.58;97054.97;5073069;28;20304;-65
2023/05/02 11:14:55;;;;;;;5.57;3.80;;;;;;;16.36;75.19;97053.47;5073550;28;20218;-64
2023/05/02 11:17:22;;;;;;;4.00;3.70;;;;;;;16.59;75.63;97052.78;5063376;28;20203;-63
2023/05/02 11:20:25;;;;;;;3.70;3.50;;;;;;;16.88;77.69;97059.22;5074452;28;20299;-64
2023/05/02 11:22:55;;;;;;;3.38;3.17;;;;;;;16.95;71.38;97056.69;5076697;28;20202;-65
2023/05/02 11:25:42;;;;;;;4.93;3.50;;;;;;;16.69;70.73;97056.91;5085663;28;20232;-65
2023/05/02 11:28:39;;;;;;;3.90;3.60;;;;;;;16.64;73.48;97056.63;5085449;28;20217;-64
2023/05/02 11:31:07;;;;;;;3.80;3.45;;;;;;;17.03;73.77;97056.66;5085188;28;20284;-65
2023/05/02 11:33:33;;;;;;;4.03;3.72;;;;;;;17.62;72.04;97063.22;5084400;28;20214;-65